Time;durP1;ratioP1;P1;durP2;ratioP2;P2;SDS_P1;SDS_P2;PMS_P1;PMS_P2;Temp;Humidity;BMP_temperature;BMP_pressure;BME280_temperature;BME280_humidity;BME280_pressure;Samples;Min_cycle;Max_cycle;Signal;HPM_P1;HPM_P2
2021/03/06 00:00:11;;;;;;;9.13;7.05;;;2.50;70.90;;;;;;5171095;27;20110;-64
2021/03/06 00:02:37;;;;;;;9.15;6.95;;;2.40;71.70;;;;;;5149998;27;20478;-65
2021/03/06 00:05:03;;;;;;;12.65;7.20;;;2.50;72.00;;;;;;5154853;27;20039;-64
2021/03/06 00:07:29;;;;;;;11.55;7.15;;;2.40;72.10;;;;;;5121511;27;20034;-63
2021/03/06 00:09:55;;;;;;;10.43;7.53;;;2.40;72.70;;;;;;5155673;27;20087;-63
2021/03/06 00:12:21;;;;;;;8.60;6.57;;;2.40;72.70;;;;;;5175452;27;20035;-63
2021/03/06 00:14:46;;;;;;;11.15;8.10;;;2.40;72.50;;;;;;5176069;27;20038;-64
2021/03/06 00:17:12;;;;;;;11.07;7.13;;;2.40;72.70;;;;;;5171696;27;20058;-64
2021/03/06 00:19:37;;;;;;;12.70;6.63;;;2.40;72.60;;;;;;5140479;27;20027;-63
2021/03/06 00:22:03;;;;;;;10.13;6.55;;;2.40;72.60;;;;;;5127972;27;20031;-64
2021/03/06 00:24:29;;;;;;;10.60;6.65;;;2.40;72.50;;;;;;5155147;27;20062;-64
2021/03/06 00:26:55;;;;;;;8.80;6.57;;;2.40;72.50;;;;;;5153825;27;20136;-63
2021/03/06 00:29:21;;;;;;;10.95;7.28;;;2.40;72.30;;;;;;5173699;27;20034;-64
2021/03/06 00:31:46;;;;;;;10.63;7.35;;;2.30;72.50;;;;;;5156585;27;20038;-64
2021/03/06 00:34:12;;;;;;;11.45;7.35;;;2.30;72.60;;;;;;5175701;27;20026;-64
2021/03/06 00:36:38;;;;;;;10.55;7.00;;;2.30;72.70;;;;;;5165829;27;20030;-63
2021/03/06 00:39:07;;;;;;;9.10;6.50;;;2.20;72.70;;;;;;5176739;27;20501;-64
2021/03/06 00:41:33;;;;;;;9.95;6.50;;;2.20;72.20;;;;;;5175888;27;20113;-65
2021/03/06 00:43:59;;;;;;;10.80;7.05;;;2.10;72.70;;;;;;5166402;27;20102;-63
2021/03/06 00:46:26;;;;;;;9.88;6.88;;;2.10;72.10;;;;;;5160081;27;20027;-64
2021/03/06 00:48:52;;;;;;;9.45;6.85;;;2.10;71.90;;;;;;5168418;27;20035;-63
2021/03/06 00:51:18;;;;;;;8.95;6.50;;;2.10;72.50;;;;;;5161297;27;20039;-63
2021/03/06 00:53:44;;;;;;;11.25;6.40;;;1.90;72.10;;;;;;5158189;27;20034;-64
2021/03/06 00:56:09;;;;;;;11.07;7.03;;;1.70;73.00;;;;;;5157061;27;20087;-63
2021/03/06 00:58:35;;;;;;;11.15;7.13;;;1.60;73.40;;;;;;5156705;27;20026;-64
2021/03/06 01:01:01;;;;;;;11.60;6.88;;;1.60;73.20;;;;;;5175468;27;20393;-64
2021/03/06 01:03:27;;;;;;;10.13;7.25;;;1.70;73.50;;;;;;5154277;27;20083;-65
2021/03/06 01:05:52;;;;;;;15.93;8.93;;;1.60;73.30;;;;;;5158022;27;20030;-62
2021/03/06 01:08:18;;;;;;;18.20;9.13;;;1.50;73.30;;;;;;5165311;27;20042;-64
2021/03/06 01:10:48;;;;;;;13.82;8.68;;;1.50;73.20;;;;;;5170716;27;20058;-64
2021/03/06 01:13:16;;;;;;;11.25;6.85;;;1.50;73.00;;;;;;5158640;27;20053;-64
2021/03/06 01:15:41;;;;;;;9.02;6.75;;;1.50;72.90;;;;;;5171126;27;20034;-64
2021/03/06 01:18:09;;;;;;;12.85;6.45;;;1.50;72.80;;;;;;5171232;27;20082;-64
2021/03/06 01:20:35;;;;;;;11.77;6.57;;;1.60;72.70;;;;;;5162452;27;20645;-64
2021/03/06 01:23:02;;;;;;;9.07;6.95;;;1.60;72.90;;;;;;5161866;27;20397;-64
2021/03/06 01:25:28;;;;;;;12.60;7.15;;;1.50;72.90;;;;;;5164159;27;20041;-65
2021/03/06 01:27:53;;;;;;;9.65;7.00;;;1.40;73.00;;;;;;5172211;27;20038;-63
2021/03/06 01:30:19;;;;;;;9.77;6.63;;;1.30;73.80;;;;;;5148878;27;20056;-64
2021/03/06 01:32:45;;;;;;;13.43;7.70;;;1.10;74.00;;;;;;5157577;27;20030;-62
2021/03/06 01:35:12;;;;;;;12.05;7.43;;;1.10;74.10;;;;;;5150840;27;20034;-61
2021/03/06 01:37:41;;;;;;;10.52;6.97;;;1.20;74.20;;;;;;5162907;22;20705;-79
2021/03/06 01:40:12;;;;;;;14.48;7.20;;;1.00;74.40;;;;;;5079571;28;20036;-78
2021/03/06 01:42:38;;;;;;;14.05;7.30;;;1.10;74.30;;;;;;5096048;28;20067;-77
2021/03/06 01:45:05;;;;;;;11.52;6.75;;;1.10;74.10;;;;;;5116598;27;20415;-78
2021/03/06 01:47:32;;;;;;;12.60;6.90;;;1.20;73.80;;;;;;5091191;27;20562;-78
2021/03/06 01:49:58;;;;;;;11.65;6.82;;;1.30;73.50;;;;;;5122972;27;20082;-79
2021/03/06 01:52:24;;;;;;;13.52;7.43;;;1.30;73.90;;;;;;5114796;27;20062;-78
2021/03/06 01:54:51;;;;;;;12.82;7.10;;;1.30;74.10;;;;;;5095799;28;20052;-78
2021/03/06 01:57:17;;;;;;;10.73;8.00;;;1.30;74.40;;;;;;5115373;28;20080;-78
2021/03/06 01:59:43;;;;;;;10.73;7.70;;;1.30;74.40;;;;;;5111436;28;20115;-78
2021/03/06 02:02:08;;;;;;;15.02;8.35;;;1.20;74.50;;;;;;5098773;28;20032;-79
2021/03/06 02:04:34;;;;;;;11.95;7.85;;;1.30;74.00;;;;;;5119139;28;20035;-80
2021/03/06 02:07:02;;;;;;;14.25;8.00;;;1.30;73.80;;;;;;5108815;28;20046;-78
2021/03/06 02:09:28;;;;;;;12.55;8.20;;;1.30;74.10;;;;;;5081655;28;20035;-78
2021/03/06 02:12:22;;;;;;;12.65;7.38;;;1.30;74.00;;;;;;5079705;28;20055;-78
2021/03/06 02:14:54;;;;;;;13.43;7.40;;;1.30;73.60;;;;;;5076872;28;20486;-79
2021/03/06 02:18:00;;;;;;;11.75;7.78;;;1.30;73.70;;;;;;5118034;28;20154;-76
2021/03/06 02:20:38;;;;;;;13.43;8.15;;;1.20;74.10;;;;;;5090664;28;20036;-78
2021/03/06 02:23:41;;;;;;;12.95;8.05;;;1.10;74.60;;;;;;5097548;28;20063;-77
2021/03/06 02:26:16;;;;;;;11.45;7.72;;;1.10;75.10;;;;;;5097665;28;20035;-77
2021/03/06 02:28:55;;;;;;;16.58;8.77;;;1.00;75.60;;;;;;5096409;28;20506;-78
2021/03/06 02:31:22;;;;;;;11.98;9.07;;;0.90;75.90;;;;;;5118285;28;20035;-78
2021/03/06 02:34:00;;;;;;;10.63;8.43;;;0.90;75.30;;;;;;5088506;28;20049;-78
2021/03/06 02:36:26;;;;;;;13.48;8.57;;;0.90;75.60;;;;;;5117502;28;20051;-77
2021/03/06 02:38:55;;;;;;;14.30;9.25;;;0.80;75.80;;;;;;5099317;28;20031;-78
2021/03/06 02:41:24;;;;;;;13.88;8.55;;;0.80;76.00;;;;;;5079847;28;20038;-78
2021/03/06 02:43:52;;;;;;;13.60;8.30;;;0.80;76.20;;;;;;5091678;28;20513;-79
2021/03/06 02:46:24;;;;;;;17.83;9.27;;;0.80;75.90;;;;;;5131766;27;20103;-78
2021/03/06 02:48:52;;;;;;;11.18;8.25;;;0.80;75.90;;;;;;5075233;28;20024;-79
2021/03/06 02:51:18;;;;;;;15.93;9.70;;;0.70;76.10;;;;;;5099945;27;20023;-78
2021/03/06 02:53:43;;;;;;;12.20;9.40;;;0.80;76.00;;;;;;5115947;28;20031;-78
2021/03/06 02:56:09;;;;;;;12.63;8.60;;;0.90;75.70;;;;;;5106212;27;20020;-83
2021/03/06 02:58:46;;;;;;;13.00;8.43;;;0.90;75.70;;;;;;5104487;27;20107;-79
2021/03/06 03:01:55;;;;;;;13.50;8.65;;;0.90;75.40;;;;;;5118858;28;20040;-80
2021/03/06 03:05:01;;;;;;;10.73;8.40;;;0.90;75.60;;;;;;5073419;28;20036;-79
2021/03/06 03:07:46;;;;;;;;;;;0.90;75.40;;;;;;5106583;27;20027;-78
2021/03/06 03:10:15;;;;;;;14.00;9.10;;;0.80;75.90;;;;;;5102139;27;20289;-78
2021/03/06 03:13:11;;;;;;;12.45;10.00;;;0.70;76.10;;;;;;5097215;27;20035;-79
2021/03/06 03:15:43;;;;;;;15.02;9.98;;;0.50;76.70;;;;;;5069245;28;20079;-79
2021/03/06 03:18:18;;;;;;;13.30;10.18;;;0.40;77.10;;;;;;5067919;28;20040;-80
2021/03/06 03:20:51;;;;;;;13.15;9.63;;;0.40;77.20;;;;;;5127035;27;20023;-79
2021/03/06 03:23:35;;;;;;;12.88;9.43;;;0.40;77.70;;;;;;5140790;27;20038;-77
2021/03/06 03:26:04;;;;;;;16.77;9.95;;;0.40;77.40;;;;;;5122170;27;20466;-79
2021/03/06 03:28:32;;;;;;;14.93;10.70;;;0.50;77.90;;;;;;5121271;27;20047;-79
2021/03/06 03:30:59;;;;;;;13.88;9.45;;;0.50;77.30;;;;;;5128753;27;20035;-78
2021/03/06 03:33:26;;;;;;;13.50;9.85;;;0.50;77.10;;;;;;5100466;28;20440;-79
2021/03/06 03:35:53;;;;;;;14.77;10.43;;;0.50;77.20;;;;;;5083472;28;20118;-79
2021/03/06 03:38:19;;;;;;;14.23;9.10;;;0.50;77.30;;;;;;5105039;27;20118;-80
2021/03/06 03:40:45;;;;;;;14.32;9.93;;;0.50;77.00;;;;;;5124058;27;20027;-80
2021/03/06 03:43:12;;;;;;;13.88;9.57;;;0.60;76.70;;;;;;5124361;27;20054;-79
2021/03/06 03:45:38;;;;;;;13.60;10.00;;;0.50;77.00;;;;;;5125969;27;20050;-79
2021/03/06 03:48:04;;;;;;;16.77;9.35;;;0.40;77.20;;;;;;5106936;27;20213;-78
2021/03/06 03:50:30;;;;;;;14.10;10.65;;;0.40;77.30;;;;;;5101897;28;20050;-79
2021/03/06 03:52:57;;;;;;;12.90;11.32;;;0.50;77.00;;;;;;5113974;27;20541;-78
2021/03/06 03:55:24;;;;;;;17.25;10.57;;;0.40;77.40;;;;;;5102206;27;20031;-78
2021/03/06 03:57:50;;;;;;;13.85;10.75;;;0.40;77.40;;;;;;5104028;27;20594;-80
2021/03/06 04:00:18;;;;;;;16.50;10.77;;;0.40;77.60;;;;;;5120981;27;20063;-79
2021/03/06 04:02:47;;;;;;;17.83;10.50;;;0.40;77.60;;;;;;5120119;27;20481;-79
2021/03/06 04:05:13;;;;;;;16.30;10.85;;;0.40;77.90;;;;;;5120197;27;20035;-79
2021/03/06 04:07:48;;;;;;;13.75;10.05;;;0.40;77.60;;;;;;5104162;27;20035;-78
2021/03/06 04:10:19;;;;;;;15.55;10.02;;;0.50;77.70;;;;;;5119653;27;20038;-77
2021/03/06 04:12:46;;;;;;;15.00;10.15;;;0.60;77.50;;;;;;5104005;27;20477;-78
2021/03/06 04:15:13;;;;;;;12.75;9.77;;;0.60;77.20;;;;;;5138497;27;20685;-78
2021/03/06 04:17:39;;;;;;;15.63;11.45;;;0.70;76.90;;;;;;5085614;27;20570;-79
2021/03/06 04:20:07;;;;;;;13.40;10.40;;;0.70;76.70;;;;;;5114356;28;20112;-79
2021/03/06 04:22:33;;;;;;;13.88;10.52;;;0.70;76.40;;;;;;5099921;28;20028;-80
2021/03/06 04:24:59;;;;;;;11.38;9.15;;;0.70;76.50;;;;;;5082132;28;20394;-78
2021/03/06 04:27:25;;;;;;;13.38;9.75;;;0.70;76.60;;;;;;5111755;27;20027;-77
2021/03/06 04:29:51;;;;;;;15.55;9.93;;;0.70;76.20;;;;;;5117544;27;20035;-77
2021/03/06 04:32:16;;;;;;;17.02;10.55;;;0.60;76.40;;;;;;5100004;28;20039;-78
2021/03/06 04:34:42;;;;;;;13.88;10.50;;;0.50;76.40;;;;;;5120016;27;20047;-78
2021/03/06 04:37:08;;;;;;;15.98;10.27;;;0.50;76.80;;;;;;5119346;27;20444;-78
2021/03/06 04:39:33;;;;;;;13.73;10.05;;;0.50;77.00;;;;;;5113396;28;20147;-78
2021/03/06 04:42:00;;;;;;;14.73;10.50;;;0.40;77.10;;;;;;5113135;27;20229;-79
2021/03/06 04:44:25;;;;;;;17.33;10.88;;;0.40;77.10;;;;;;5119501;27;20031;-78
2021/03/06 04:46:51;;;;;;;19.38;10.52;;;0.40;77.20;;;;;;5121357;27;20119;-78
2021/03/06 04:49:17;;;;;;;15.15;9.57;;;0.40;77.30;;;;;;5105327;28;20551;-78
2021/03/06 04:51:42;;;;;;;14.10;9.90;;;0.40;77.20;;;;;;5084055;28;20036;-79
2021/03/06 04:54:08;;;;;;;15.18;9.65;;;0.40;77.40;;;;;;5099626;28;20400;-79
2021/03/06 04:56:34;;;;;;;14.25;9.93;;;0.40;77.10;;;;;;5099346;28;20066;-77
2021/03/06 04:59:00;;;;;;;15.25;10.13;;;0.30;77.70;;;;;;5080136;28;20391;-78
2021/03/06 05:01:25;;;;;;;14.13;9.85;;;0.20;77.20;;;;;;5079900;28;20545;-79
2021/03/06 05:03:51;;;;;;;15.02;9.98;;;0.20;77.30;;;;;;5086487;27;20042;-79
2021/03/06 05:06:16;;;;;;;16.95;11.88;;;0.20;77.60;;;;;;5103916;27;20031;-79
2021/03/06 05:08:42;;;;;;;14.02;10.18;;;0.10;77.90;;;;;;5100483;28;20072;-78
2021/03/06 05:11:08;;;;;;;13.85;9.73;;;0.10;77.90;;;;;;5100517;28;20027;-78
2021/03/06 05:13:34;;;;;;;15.43;10.00;;;0.20;77.60;;;;;;5136643;27;20346;-78
2021/03/06 05:16:00;;;;;;;12.30;9.68;;;0.10;77.90;;;;;;5113777;28;20463;-77
2021/03/06 05:18:26;;;;;;;15.23;10.23;;;0.00;78.30;;;;;;5082344;28;20059;-77
2021/03/06 05:20:51;;;;;;;17.67;10.60;;;0.00;78.70;;;;;;5103106;27;20042;-78
2021/03/06 05:23:17;;;;;;;16.45;9.55;;;0.00;78.50;;;;;;5101674;27;20031;-78
2021/03/06 05:25:43;;;;;;;14.48;9.65;;;-0.10;78.60;;;;;;5087460;28;20031;-79
2021/03/06 05:28:08;;;;;;;14.43;10.52;;;-0.10;79.00;;;;;;5082717;28;20122;-77
2021/03/06 05:30:34;;;;;;;14.98;10.63;;;-0.10;79.10;;;;;;5082632;28;20122;-78
2021/03/06 05:32:59;;;;;;;12.50;9.27;;;-0.10;78.90;;;;;;5101264;28;20027;-79
2021/03/06 05:35:25;;;;;;;19.13;11.77;;;-0.20;79.30;;;;;;5083247;28;20089;-79
2021/03/06 05:37:51;;;;;;;12.40;8.85;;;-0.20;79.10;;;;;;5102666;28;20152;-77
2021/03/06 05:40:17;;;;;;;16.45;9.52;;;-0.30;79.00;;;;;;5085867;27;20515;-78
2021/03/06 05:42:43;;;;;;;11.45;8.32;;;-0.30;79.00;;;;;;5139872;27;20117;-78
2021/03/06 05:45:09;;;;;;;14.20;8.55;;;-0.40;79.20;;;;;;5106167;28;20109;-78
2021/03/06 05:47:35;;;;;;;13.52;8.93;;;-0.50;79.50;;;;;;5083310;28;20043;-78
2021/03/06 05:50:01;;;;;;;12.05;8.60;;;-0.50;79.80;;;;;;5129496;27;20035;-78
2021/03/06 05:52:28;;;;;;;14.45;9.07;;;-0.50;80.30;;;;;;5102895;27;20031;-79
2021/03/06 05:54:56;;;;;;;11.57;8.95;;;-0.60;80.60;;;;;;5128819;27;20028;-80
2021/03/06 05:57:22;;;;;;;13.15;8.85;;;-0.50;80.30;;;;;;5092161;27;20046;-79
2021/03/06 05:59:48;;;;;;;11.90;8.63;;;-0.50;79.90;;;;;;5103024;27;20031;-80
2021/03/06 06:02:18;;;;;;;13.10;9.00;;;-0.40;79.90;;;;;;5111971;28;20027;-79
2021/03/06 06:04:45;;;;;;;12.30;9.13;;;-0.30;79.30;;;;;;5102302;28;20035;-80
2021/03/06 06:07:14;;;;;;;15.10;10.27;;;-0.30;79.00;;;;;;5103219;27;20035;-79
2021/03/06 06:09:40;;;;;;;16.75;10.38;;;-0.20;78.90;;;;;;5110885;28;20364;-79
2021/03/06 06:12:06;;;;;;;11.65;8.25;;;-0.20;78.50;;;;;;5077848;28;20032;-78
2021/03/06 06:14:32;;;;;;;11.60;8.68;;;-0.30;78.80;;;;;;5079015;28;20119;-79
2021/03/06 06:16:58;;;;;;;13.07;8.35;;;-0.50;79.50;;;;;;5126089;27;20027;-83
2021/03/06 06:19:24;;;;;;;14.63;8.82;;;-0.30;79.00;;;;;;5109730;28;20027;-80
2021/03/06 06:21:50;;;;;;;14.98;9.13;;;-0.20;78.70;;;;;;5068200;28;20407;-78
2021/03/06 06:24:18;;;;;;;12.77;9.57;;;-0.20;78.70;;;;;;5097917;28;20084;-79
2021/03/06 06:26:59;;;;;;;15.23;9.57;;;-0.30;79.00;;;;;;5098936;28;20177;-77
2021/03/06 06:29:41;;;;;;;11.90;7.88;;;-0.20;79.10;;;;;;5105132;28;20038;-79
2021/03/06 06:32:08;;;;;;;11.20;8.63;;;0.10;78.30;;;;;;5086865;28;20028;-78
2021/03/06 06:34:37;;;;;;;13.32;9.20;;;0.10;77.90;;;;;;5096558;28;20038;-80
2021/03/06 06:37:11;;;;;;;13.25;8.98;;;0.10;78.00;;;;;;5107068;28;20036;-79
2021/03/06 06:39:38;;;;;;;11.53;8.70;;;0.20;77.60;;;;;;5088412;28;20043;-77
2021/03/06 06:42:04;;;;;;;15.15;9.93;;;0.40;77.20;;;;;;5099621;28;20450;-78
2021/03/06 06:44:31;;;;;;;10.25;8.32;;;0.30;77.30;;;;;;5106820;28;20107;-79
2021/03/06 06:46:57;;;;;;;13.73;8.77;;;0.20;77.70;;;;;;5083476;28;20061;-79
2021/03/06 06:49:24;;;;;;;12.23;8.68;;;0.10;78.10;;;;;;5080655;28;20111;-78
2021/03/06 06:51:59;;;;;;;13.88;9.15;;;0.10;78.60;;;;;;5096540;28;20028;-79
2021/03/06 06:54:26;;;;;;;12.35;9.00;;;0.20;78.20;;;;;;5125876;28;20024;-79
2021/03/06 06:57:16;;;;;;;14.27;9.48;;;0.20;78.10;;;;;;5123912;28;20035;-78
2021/03/06 07:00:12;;;;;;;13.63;8.95;;;0.20;77.80;;;;;;5120059;28;20043;-79
2021/03/06 07:02:57;;;;;;;15.63;9.43;;;0.30;77.70;;;;;;5101781;28;20113;-79
2021/03/06 07:05:36;;;;;;;;;;;0.30;78.00;;;;;;5120901;28;20035;-79
2021/03/06 07:08:03;;;;;;;13.95;9.65;;;0.20;78.70;;;;;;5109897;28;19970;-80
2021/03/06 07:10:40;;;;;;;17.38;10.02;;;0.20;79.30;;;;;;5103559;28;20039;-78
2021/03/06 07:13:09;;;;;;;15.55;10.35;;;0.30;78.90;;;;;;5121300;28;20047;-79
2021/03/06 07:15:36;;;;;;;12.98;8.73;;;0.50;78.50;;;;;;5120227;28;20027;-79
2021/03/06 07:18:04;;;;;;;15.00;10.27;;;0.40;78.50;;;;;;5103889;28;20114;-78
2021/03/06 07:20:36;;;;;;;13.05;9.68;;;0.30;79.00;;;;;;5118424;28;20024;-79
2021/03/06 07:23:21;;;;;;;14.10;9.57;;;0.40;78.10;;;;;;5100857;28;20045;-78
2021/03/06 07:25:52;;;;;;;16.30;10.43;;;0.40;78.20;;;;;;5104202;28;20034;-80
2021/03/06 07:28:20;;;;;;;13.82;9.07;;;0.60;77.90;;;;;;5083681;28;20050;-77
2021/03/06 07:30:47;;;;;;;16.02;9.70;;;0.70;77.00;;;;;;5102294;28;20032;-79
2021/03/06 07:33:16;;;;;;;12.82;8.98;;;0.70;77.50;;;;;;5104907;28;20023;-79
2021/03/06 07:35:46;;;;;;;15.43;9.18;;;0.90;76.10;;;;;;5121068;27;20083;-81
2021/03/06 07:38:21;;;;;;;14.93;9.70;;;0.90;76.30;;;;;;5112959;27;20035;-78
2021/03/06 07:40:55;;;;;;;;;;;0.90;77.00;;;;;;5123008;27;20027;-77
2021/03/06 07:43:26;;;;;;;13.80;8.65;;;1.00;76.40;;;;;;5130915;27;20354;-81
2021/03/06 07:46:05;;;;;;;15.80;9.98;;;1.10;76.10;;;;;;5113087;28;20031;-81
2021/03/06 07:48:53;;;;;;;11.65;9.30;;;1.30;75.60;;;;;;5116454;28;20015;-80
2021/03/06 07:51:22;;;;;;;14.88;9.32;;;1.40;75.70;;;;;;5128827;27;20019;-79
2021/03/06 07:53:49;;;;;;;16.83;9.07;;;1.40;75.30;;;;;;5144097;27;20031;-78
2021/03/06 07:56:15;;;;;;;14.15;9.55;;;1.40;75.50;;;;;;5106859;27;20031;-80
2021/03/06 07:58:53;;;;;;;13.32;9.20;;;1.60;74.60;;;;;;5108912;27;20037;-78
2021/03/06 08:01:32;;;;;;;15.23;9.70;;;1.70;74.40;;;;;;5108800;28;20032;-80
2021/03/06 08:04:03;;;;;;;14.90;9.00;;;1.70;74.50;;;;;;5082669;28;20383;-78
2021/03/06 08:06:30;;;;;;;13.20;8.77;;;1.60;74.50;;;;;;5116801;27;20050;-80
2021/03/06 08:09:00;;;;;;;13.55;9.10;;;1.50;74.60;;;;;;5090990;28;20038;-79
2021/03/06 08:11:45;;;;;;;12.75;8.88;;;1.70;74.10;;;;;;5104707;28;20035;-79
2021/03/06 08:14:30;;;;;;;;;;;1.60;74.80;;;;;;5142672;27;20088;-78
2021/03/06 08:16:56;;;;;;;14.70;8.77;;;1.80;73.50;;;;;;5102514;28;19915;-78
2021/03/06 08:19:25;;;;;;;12.30;8.70;;;1.90;73.10;;;;;;5082357;28;20270;-77
2021/03/06 08:21:56;;;;;;;14.65;8.57;;;2.00;73.20;;;;;;5116573;28;20432;-80
2021/03/06 08:24:23;;;;;;;13.15;8.70;;;2.20;72.60;;;;;;5121211;27;20035;-78
2021/03/06 08:27:08;;;;;;;11.75;8.13;;;2.30;72.20;;;;;;5108521;28;20403;-80
2021/03/06 08:29:39;;;;;;;12.80;7.28;;;2.40;71.70;;;;;;5123292;27;20034;-82
2021/03/06 08:32:31;;;;;;;10.57;7.75;;;2.50;71.20;;;;;;5070504;28;20032;-80
2021/03/06 08:35:12;;;;;;;11.45;6.97;;;2.60;70.80;;;;;;5110088;28;20031;-81
2021/03/06 08:37:38;;;;;;;10.63;7.75;;;2.60;70.90;;;;;;5119694;28;20049;-80
2021/03/06 08:40:30;;;;;;;10.05;6.95;;;2.70;70.60;;;;;;5104490;27;20122;-81
2021/03/06 08:42:57;;;;;;;17.90;7.40;;;2.80;70.50;;;;;;5093320;28;20123;-81
2021/03/06 08:45:28;;;;;;;11.85;6.90;;;2.70;70.70;;;;;;5099786;27;20070;-80
2021/03/06 08:48:01;;;;;;;10.57;7.32;;;2.90;70.80;;;;;;5102099;28;20110;-80
2021/03/06 08:50:29;;;;;;;10.23;6.70;;;2.90;71.80;;;;;;5104406;28;20043;-82
2021/03/06 08:53:44;;;;;;;12.45;6.28;;;2.80;71.70;;;;;;5119954;28;20300;-83
2021/03/06 08:56:14;;;;;;;7.32;5.18;;;2.60;71.40;;;;;;5080684;28;20066;-82
2021/03/06 08:58:49;;;;;;;9.60;5.90;;;2.70;71.20;;;;;;5108546;27;20047;-81
2021/03/06 09:01:14;;;;;;;10.32;5.80;;;3.00;71.20;;;;;;5106277;27;20031;-84
2021/03/06 09:03:40;;;;;;;10.57;5.55;;;3.10;70.40;;;;;;5103291;28;20051;-82
2021/03/06 09:06:21;;;;;;;;;;;;;;;;;;;;;
2021/03/06 09:08:56;;;;;;;8.70;5.60;;;3.30;69.60;;;;;;5137544;28;20017;-83
2021/03/06 09:11:24;;;;;;;10.10;5.97;;;3.20;69.40;;;;;;5117655;28;20047;-81
2021/03/06 09:13:52;;;;;;;12.27;5.57;;;3.20;69.50;;;;;;5108849;27;20019;-81
2021/03/06 09:16:19;;;;;;;7.78;5.38;;;3.10;68.90;;;;;;5103599;28;20036;-81
2021/03/06 09:18:47;;;;;;;8.35;5.57;;;3.10;69.20;;;;;;5123238;28;20024;-81
2021/03/06 09:21:23;;;;;;;11.40;6.13;;;3.20;68.70;;;;;;5085898;28;20059;-80
2021/03/06 09:23:53;;;;;;;8.23;5.45;;;3.20;68.40;;;;;;5096665;28;20024;-80
2021/03/06 09:26:25;;;;;;;8.82;5.65;;;3.30;68.30;;;;;;5106253;28;20028;-80
2021/03/06 09:28:55;;;;;;;7.13;5.47;;;3.30;67.90;;;;;;5113339;28;20518;-81
2021/03/06 09:31:27;;;;;;;6.78;4.35;;;3.30;68.30;;;;;;5106635;27;20031;-79
2021/03/06 09:33:54;;;;;;;10.18;5.03;;;3.30;68.00;;;;;;5100988;28;20060;-80
2021/03/06 09:36:27;;;;;;;7.57;5.05;;;3.40;67.60;;;;;;5106498;27;20090;-80
2021/03/06 09:38:52;;;;;;;8.02;5.13;;;3.50;67.40;;;;;;5120955;27;20042;-80
2021/03/06 09:41:21;;;;;;;10.18;5.00;;;3.50;67.30;;;;;;5121283;27;20356;-80
2021/03/06 09:43:52;;;;;;;11.80;5.72;;;3.70;67.70;;;;;;5139068;27;20039;-78
2021/03/06 09:46:25;;;;;;;7.60;4.85;;;3.70;66.90;;;;;;5106555;27;20127;-78
2021/03/06 09:48:59;;;;;;;10.10;4.45;;;3.80;67.10;;;;;;5087035;28;20036;-81
2021/03/06 09:51:46;;;;;;;7.88;5.35;;;3.80;66.80;;;;;;5084065;28;20032;-79
2021/03/06 09:54:15;;;;;;;9.10;5.00;;;3.70;67.40;;;;;;5097346;28;20319;-81
2021/03/06 09:56:51;;;;;;;10.45;5.20;;;3.50;67.80;;;;;;5084412;28;20076;-81
2021/03/06 09:59:18;;;;;;;8.10;5.40;;;3.50;68.00;;;;;;5088291;28;20628;-80
2021/03/06 10:01:44;;;;;;;10.82;5.82;;;3.70;67.60;;;;;;5102415;28;20020;-80
2021/03/06 10:04:23;;;;;;;10.82;5.32;;;3.90;67.60;;;;;;5139146;27;20038;-80
2021/03/06 10:06:54;;;;;;;8.38;4.45;;;4.10;67.00;;;;;;5121269;27;20109;-79
2021/03/06 10:09:21;;;;;;;16.45;5.13;;;4.20;66.60;;;;;;5086651;28;20032;-79
2021/03/06 10:11:50;;;;;;;9.25;5.78;;;4.10;66.80;;;;;;5096944;28;20086;-80
2021/03/06 10:14:26;;;;;;;11.02;5.25;;;4.10;66.40;;;;;;5115734;28;20049;-80
2021/03/06 10:17:02;;;;;;;7.55;4.28;;;4.30;66.00;;;;;;5112191;28;20031;-78
2021/03/06 10:19:31;;;;;;;8.23;4.22;;;4.30;65.90;;;;;;5114508;28;20375;-77
2021/03/06 10:22:05;;;;;;;7.80;4.13;;;4.60;65.20;;;;;;5103863;28;20027;-79
2021/03/06 10:24:49;;;;;;;6.07;4.47;;;4.70;64.90;;;;;;5116591;28;20081;-81
2021/03/06 10:27:15;;;;;;;7.05;5.15;;;4.50;65.10;;;;;;5103913;28;20517;-80
2021/03/06 10:29:41;;;;;;;5.70;4.05;;;4.50;65.70;;;;;;5122947;28;20058;-80
2021/03/06 10:32:07;;;;;;;7.78;4.22;;;4.40;65.50;;;;;;5105071;28;20038;-80
2021/03/06 10:34:35;;;;;;;8.32;4.45;;;4.30;65.90;;;;;;5108200;28;20031;-78
2021/03/06 10:37:19;;;;;;;8.27;5.00;;;4.40;65.40;;;;;;5122634;28;20027;-81
2021/03/06 10:39:57;;;;;;;8.95;4.57;;;4.60;65.10;;;;;;5105111;28;20019;-80
2021/03/06 10:42:26;;;;;;;11.18;4.68;;;4.60;64.70;;;;;;5088430;28;20055;-80
2021/03/06 10:44:52;;;;;;;5.95;4.80;;;4.60;64.70;;;;;;5144408;28;20041;-80
2021/03/06 10:47:18;;;;;;;9.30;4.30;;;4.50;65.00;;;;;;5122736;28;20035;-79
2021/03/06 10:49:48;;;;;;;6.05;4.50;;;4.60;65.10;;;;;;5088266;28;20032;-80
2021/03/06 10:52:28;;;;;;;8.48;5.00;;;4.80;65.40;;;;;;5080305;28;20043;-80
2021/03/06 10:58:49;;;;;;;6.75;3.75;;;5.20;63.80;;;;;;5101315;28;20066;-80
2021/03/06 11:01:16;;;;;;;8.02;4.38;;;5.10;64.10;;;;;;5097216;28;20040;-79
2021/03/06 11:04:16;;;;;;;5.40;3.63;;;5.00;63.80;;;;;;5125659;28;20069;-81
2021/03/06 11:07:29;;;;;;;4.35;3.72;;;5.20;63.80;;;;;;5128420;27;20131;-81
2021/03/06 11:09:58;;;;;;;5.53;3.58;;;5.20;62.30;;;;;;5077185;28;20036;-79
2021/03/06 11:12:30;;;;;;;7.93;3.45;;;5.30;62.20;;;;;;5112353;27;20034;-81
2021/03/06 11:15:27;;;;;;;5.15;4.03;;;5.70;61.50;;;;;;5105501;28;20059;-78
2021/03/06 11:17:58;;;;;;;5.35;3.80;;;6.00;61.00;;;;;;5107515;27;20125;-79
2021/03/06 11:23:55;;;;;;;2.58;2.15;;;6.30;58.60;;;;;;5142708;27;20030;-80
2021/03/06 11:26:21;;;;;;;5.15;2.42;;;6.30;58.20;;;;;;5104269;28;20032;-79
2021/03/06 11:28:54;;;;;;;3.92;2.50;;;6.20;59.00;;;;;;5104584;28;20452;-79
2021/03/06 11:31:20;;;;;;;4.88;3.50;;;5.90;60.00;;;;;;5086774;28;20047;-79
2021/03/06 11:33:46;;;;;;;4.78;2.63;;;5.80;61.00;;;;;;5103051;28;20035;-78
2021/03/06 11:36:12;;;;;;;3.40;2.08;;;6.10;59.90;;;;;;5087004;28;20031;-79
2021/03/06 11:38:38;;;;;;;1.48;1.38;;;6.10;58.90;;;;;;5110119;27;20042;-78
2021/03/06 11:41:03;;;;;;;3.72;2.33;;;6.30;56.70;;;;;;5105791;27;20031;-77
2021/03/06 11:43:29;;;;;;;4.75;2.33;;;6.10;59.20;;;;;;5141896;27;20031;-78
2021/03/06 11:45:55;;;;;;;2.30;2.10;;;5.90;60.20;;;;;;5125668;27;20033;-78
2021/03/06 11:48:20;;;;;;;4.47;2.20;;;5.60;61.20;;;;;;5087140;27;20032;-77
2021/03/06 11:50:51;;;;;;;4.57;1.90;;;5.50;61.70;;;;;;5085595;28;20038;-78
2021/03/06 11:53:17;;;;;;;2.53;1.63;;;5.60;61.60;;;;;;5083419;28;20040;-79
2021/03/06 11:55:43;;;;;;;1.45;1.35;;;5.90;60.90;;;;;;5089719;28;20042;-78
2021/03/06 11:58:09;;;;;;;2.00;1.70;;;6.00;60.70;;;;;;5115224;27;20039;-77
2021/03/06 12:00:37;;;;;;;3.22;1.75;;;6.00;60.10;;;;;;5138295;27;20095;-77
2021/03/06 12:03:07;;;;;;;4.05;1.80;;;6.30;59.00;;;;;;5108289;28;20099;-78
2021/03/06 12:05:33;;;;;;;2.00;1.80;;;6.30;59.30;;;;;;5103693;28;20143;-78
2021/03/06 12:07:58;;;;;;;4.55;2.40;;;5.90;60.30;;;;;;5106326;28;20032;-79
2021/03/06 12:10:28;;;;;;;2.42;1.80;;;5.90;60.20;;;;;;5112429;28;20046;-81
2021/03/06 12:12:55;;;;;;;3.08;1.80;;;6.10;59.90;;;;;;5141654;27;20434;-78
2021/03/06 12:15:22;;;;;;;3.15;2.10;;;6.10;59.70;;;;;;5125766;27;20123;-79
2021/03/06 12:17:50;;;;;;;4.10;2.00;;;6.10;59.60;;;;;;5113885;28;20031;-79
2021/03/06 12:20:17;;;;;;;3.83;2.10;;;5.70;60.40;;;;;;5105900;27;20024;-79
2021/03/06 12:22:46;;;;;;;3.58;1.75;;;5.70;60.90;;;;;;5123576;28;20039;-78
2021/03/06 12:25:13;;;;;;;2.65;2.10;;;5.70;60.70;;;;;;5101923;28;20031;-77
2021/03/06 12:27:39;;;;;;;3.53;2.38;;;5.60;61.30;;;;;;5107257;27;20093;-78
2021/03/06 12:30:10;;;;;;;3.67;2.50;;;5.50;61.80;;;;;;5102917;27;20041;-78
2021/03/06 12:32:39;;;;;;;4.55;2.10;;;5.50;62.00;;;;;;5090787;27;20091;-77
2021/03/06 12:35:10;;;;;;;4.07;2.38;;;5.50;62.20;;;;;;5105868;27;20038;-79
2021/03/06 12:37:35;;;;;;;4.88;2.63;;;5.70;61.70;;;;;;5103442;27;20038;-79
2021/03/06 12:40:02;;;;;;;4.45;2.78;;;5.50;62.30;;;;;;5092495;28;20027;-79
2021/03/06 12:42:28;;;;;;;3.10;2.22;;;5.30;63.40;;;;;;5103044;27;20031;-80
2021/03/06 12:44:54;;;;;;;3.45;1.98;;;5.60;63.10;;;;;;5083593;28;20398;-80
2021/03/06 12:47:19;;;;;;;3.67;2.25;;;5.50;63.60;;;;;;5084870;28;20032;-80
2021/03/06 12:49:45;;;;;;;2.70;2.00;;;5.60;62.40;;;;;;5090331;28;20028;-78
2021/03/06 12:52:11;;;;;;;2.40;1.83;;;5.50;62.50;;;;;;5111277;28;20027;-78
2021/03/06 12:54:36;;;;;;;2.42;1.70;;;5.60;63.50;;;;;;5086997;28;20067;-78
2021/03/06 12:57:02;;;;;;;3.13;2.13;;;5.50;62.70;;;;;;5105391;28;20108;-79
2021/03/06 12:59:27;;;;;;;2.25;1.95;;;5.40;62.80;;;;;;5082390;28;20576;-78
2021/03/06 13:01:53;;;;;;;2.80;2.08;;;5.20;63.30;;;;;;5100158;28;20036;-77
2021/03/06 13:04:20;;;;;;;3.75;2.30;;;5.40;63.50;;;;;;5096393;27;20039;-78
2021/03/06 13:06:47;;;;;;;3.70;2.50;;;5.40;63.50;;;;;;5104766;27;20438;-79
2021/03/06 13:09:15;;;;;;;4.95;2.50;;;5.60;63.40;;;;;;5069292;28;20495;-77
2021/03/06 13:11:43;;;;;;;3.17;2.50;;;5.80;63.50;;;;;;5080513;28;20056;-78